Time;durP1;ratioP1;P1;durP2;ratioP2;P2;SDS_P1;SDS_P2;PMS_P1;PMS_P2;Temp;Humidity;BMP_temperature;BMP_pressure;BME280_temperature;BME280_humidity;BME280_pressure;Samples;Min_cycle;Max_cycle;Signal;HPM_P1;HPM_P2
2021/06/04 00:01:12;;;;;;;5.22;3.17;;;;;;;17.29;54.03;96694.91;5047116;28;20484;-71
2021/06/04 00:03:38;;;;;;;6.18;3.45;;;;;;;17.26;54.71;96692.84;5051063;28;20037;-71
2021/06/04 00:06:06;;;;;;;5.30;3.05;;;;;;;17.23;54.86;96693.56;5050662;28;20099;-71
2021/06/04 00:08:33;;;;;;;5.07;3.20;;;;;;;17.20;55.14;96700.56;5051139;28;20495;-71
2021/06/04 00:11:02;;;;;;;7.80;3.92;;;;;;;17.17;55.00;96701.28;5051031;28;20063;-71
2021/06/04 00:13:32;;;;;;;6.38;3.53;;;;;;;17.13;55.15;96699.56;5050910;28;20048;-71
2021/06/04 00:16:01;;;;;;;4.57;3.10;;;;;;;17.10;55.74;96694.75;5051167;28;20536;-71
2021/06/04 00:18:29;;;;;;;5.65;3.60;;;;;;;17.06;55.80;96705.66;5050734;28;20041;-71
2021/06/04 00:20:56;;;;;;;4.38;2.92;;;;;;;17.03;55.36;96705.59;5050658;28;20055;-71
2021/06/04 00:23:22;;;;;;;6.18;2.83;;;;;;;17.00;55.58;96703.53;5050474;28;20041;-71
2021/06/04 00:25:48;;;;;;;6.22;3.40;;;;;;;16.97;56.02;96704.25;5050760;28;20049;-71
2021/06/04 00:28:14;;;;;;;5.38;3.13;;;;;;;16.95;56.42;96705.38;5050165;28;20045;-71
2021/06/04 00:30:41;;;;;;;6.15;3.58;;;;;;;16.93;55.46;96702.19;5047579;28;20041;-71
2021/06/04 00:33:07;;;;;;;7.38;3.20;;;;;;;16.91;56.31;96701.75;5050193;28;20099;-71
2021/06/04 00:35:36;;;;;;;6.55;3.42;;;;;;;16.89;55.89;96701.28;5050854;28;20068;-71
2021/06/04 00:38:02;;;;;;;8.05;3.60;;;;;;;16.85;55.96;96700.38;5050377;28;20045;-71
2021/06/04 00:40:32;;;;;;;8.10;3.40;;;;;;;16.84;55.84;96703.47;5050318;28;20048;-71
2021/06/04 00:42:58;;;;;;;4.93;3.20;;;;;;;16.83;56.09;96696.38;5051044;28;20044;-71
2021/06/04 00:45:28;;;;;;;6.75;3.28;;;;;;;16.81;56.34;96707.75;5053168;28;20045;-71
2021/06/04 00:47:55;;;;;;;4.63;3.03;;;;;;;16.80;55.96;96705.31;5054528;28;20071;-71
2021/06/04 00:50:27;;;;;;;6.55;3.22;;;;;;;16.78;55.59;96705.69;5054130;28;20045;-71
2021/06/04 00:52:56;;;;;;;7.00;4.10;;;;;;;16.77;54.75;96703.28;5054375;28;20057;-71
2021/06/04 00:55:25;;;;;;;5.50;2.85;;;;;;;16.74;54.37;96703.97;5054152;28;20563;-72
2021/06/04 00:57:51;;;;;;;5.63;2.92;;;;;;;16.74;55.36;96704.75;5054321;28;20573;-71
2021/06/04 01:00:22;;;;;;;7.57;3.58;;;;;;;16.71;55.31;96705.47;5050359;28;20575;-71
2021/06/04 01:02:49;;;;;;;4.35;2.83;;;;;;;16.68;55.91;96704.19;5054424;28;20536;-71
2021/06/04 01:05:16;;;;;;;4.72;3.15;;;;;;;16.65;55.18;96709.56;5054216;28;20049;-71
2021/06/04 01:07:53;;;;;;;6.40;3.38;;;;;;;16.64;55.24;96718.97;5054347;28;20488;-71
2021/06/04 01:10:29;;;;;;;6.63;3.67;;;;;;;16.61;55.72;96712.25;5053813;28;20048;-70
2021/06/04 01:13:01;;;;;;;4.72;3.10;;;;;;;16.59;55.89;96719.22;5054266;28;20052;-71
2021/06/04 01:15:37;;;;;;;4.78;3.25;;;;;;;16.58;56.46;96712.91;5053960;28;20048;-71
2021/06/04 01:18:07;;;;;;;4.65;3.22;;;;;;;16.57;55.63;96716.81;5053725;28;20041;-71
2021/06/04 01:20:36;;;;;;;6.18;3.85;;;;;;;16.56;55.98;96717.19;5053819;28;20045;-70
2021/06/04 01:23:15;;;;;;;6.32;3.42;;;;;;;16.55;55.82;96718.31;5053594;28;20625;-71
2021/06/04 01:25:48;;;;;;;8.02;4.18;;;;;;;16.55;54.94;96727.38;5053809;28;20094;-71
2021/06/04 01:28:20;;;;;;;4.68;3.13;;;;;;;16.55;54.99;96721.88;5053371;28;20045;-71
2021/06/04 01:30:54;;;;;;;6.13;3.65;;;;;;;16.54;55.40;96728.50;5050416;28;20102;-71
2021/06/04 01:33:24;;;;;;;5.28;3.60;;;;;;;16.53;55.72;96731.59;5053502;28;20048;-71
2021/06/04 01:35:54;;;;;;;8.07;4.20;;;;;;;16.51;56.33;96733.91;5053381;28;20045;-71
2021/06/04 01:38:27;;;;;;;6.18;4.00;;;;;;;16.49;56.54;96730.69;5053302;28;20049;-71
2021/06/04 01:41:00;;;;;;;9.52;4.00;;;;;;;16.47;56.54;96736.53;5053550;28;20083;-71
2021/06/04 01:43:29;;;;;;;6.10;4.20;;;;;;;16.46;56.93;96731.41;5053206;28;20047;-70
2021/06/04 01:45:59;;;;;;;6.40;3.53;;;;;;;16.41;56.93;96735.19;5053559;28;20385;-71
2021/06/04 01:48:29;;;;;;;5.72;3.67;;;;;;;16.36;56.65;96738.97;5053264;28;20500;-71
2021/06/04 01:50:59;;;;;;;7.28;4.15;;;;;;;16.34;56.51;96744.03;5053433;28;20045;-71
2021/06/04 01:53:29;;;;;;;7.38;4.10;;;;;;;16.28;56.52;96739.88;5052986;28;20079;-71
2021/06/04 01:56:11;;;;;;;7.05;4.10;;;;;;;16.23;56.89;96742.06;5052771;28;20106;-71
2021/06/04 01:58:42;;;;;;;7.20;4.03;;;;;;;16.17;56.96;96736.00;5053030;28;20048;-71
2021/06/04 02:01:12;;;;;;;6.35;4.25;;;;;;;16.15;57.10;96739.13;5049645;28;20041;-72
2021/06/04 02:03:38;;;;;;;8.35;4.43;;;;;;;16.15;57.05;96738.31;5053091;28;20037;-71
2021/06/04 02:06:07;;;;;;;5.45;3.88;;;;;;;16.12;57.57;96736.25;5052833;28;20051;-71
2021/06/04 02:08:36;;;;;;;5.38;3.25;;;;;;;16.10;58.30;96739.34;5053341;28;20041;-71
2021/06/04 02:11:05;;;;;;;5.60;3.65;;;;;;;16.09;57.52;96734.19;5052713;28;20049;-71
2021/06/04 02:13:31;;;;;;;6.85;4.15;;;;;;;16.06;57.84;96730.19;5052814;28;20052;-72
2021/06/04 02:16:22;;;;;;;6.78;3.85;;;;;;;16.05;57.80;96727.78;5052873;28;20045;-73
2021/06/04 02:18:59;;;;;;;6.53;4.45;;;;;;;15.97;57.87;96731.44;5052870;28;20040;-71
2021/06/04 02:21:29;;;;;;;7.25;4.28;;;;;;;15.89;58.66;96725.72;5052113;28;20040;-72
2021/06/04 02:24:01;;;;;;;6.65;4.20;;;;;;;15.85;58.48;96735.78;5052938;28;20037;-73
2021/06/04 02:26:34;;;;;;;7.80;4.17;;;;;;;15.80;59.25;96738.75;5052602;28;20041;-72
2021/06/04 02:29:09;;;;;;;25.67;8.48;;;;;;;15.75;59.45;96730.75;5046252;28;20076;-72
2021/06/04 02:31:40;;;;;;;10.52;4.60;;;;;;;15.72;59.98;96739.69;5037029;28;20029;-73
2021/06/04 02:34:13;;;;;;;8.82;4.63;;;;;;;15.72;59.50;96734.19;5052157;28;20427;-72
2021/06/04 02:36:43;;;;;;;6.53;4.07;;;;;;;15.70;59.55;96733.72;5052504;28;20569;-72
2021/06/04 02:39:14;;;;;;;9.75;4.57;;;;;;;15.70;60.11;96732.91;5051930;28;20515;-72
2021/06/04 02:41:45;;;;;;;11.75;4.93;;;;;;;15.68;60.78;96730.53;5052563;28;20049;-73
2021/06/04 02:44:15;;;;;;;7.10;4.05;;;;;;;15.68;59.98;96735.22;5052017;28;20053;-72
2021/06/04 02:46:44;;;;;;;11.55;4.25;;;;;;;15.67;60.49;96733.63;5052390;28;20048;-72
2021/06/04 02:49:13;;;;;;;7.63;4.40;;;;;;;15.68;60.20;96730.53;5051731;28;20049;-72
2021/06/04 02:51:50;;;;;;;7.72;4.07;;;;;;;15.70;59.27;96736.47;5051866;28;20048;-72
2021/06/04 02:54:20;;;;;;;6.72;4.07;;;;;;;15.71;58.53;96735.31;5051957;28;20136;-73
2021/06/04 02:56:49;;;;;;;9.32;4.78;;;;;;;15.70;58.15;96739.22;5052356;28;20041;-72
2021/06/04 02:59:19;;;;;;;10.23;5.05;;;;;;;15.69;59.60;96743.09;5047269;28;20054;-73
2021/06/04 03:01:49;;;;;;;6.75;4.10;;;;;;;15.68;60.07;96738.75;5045912;28;20053;-73
2021/06/04 03:04:17;;;;;;;9.80;4.35;;;;;;;15.71;60.76;96735.31;5051711;28;20041;-72
2021/06/04 03:06:46;;;;;;;9.27;5.40;;;;;;;15.73;60.16;96740.47;5052181;28;20048;-73
2021/06/04 03:09:19;;;;;;;8.82;4.55;;;;;;;15.78;60.18;96740.25;5050510;28;20233;-73
2021/06/04 03:11:45;;;;;;;14.07;5.15;;;;;;;15.81;60.00;96736.81;5051705;28;20103;-72
2021/06/04 03:14:15;;;;;;;8.10;4.60;;;;;;;15.84;59.88;96733.41;5051342;28;20041;-72
2021/06/04 03:16:41;;;;;;;7.88;4.72;;;;;;;15.88;59.96;96735.13;5052109;28;20052;-72
2021/06/04 03:19:10;;;;;;;8.07;4.43;;;;;;;15.88;60.19;96737.88;5051461;28;20049;-72
2021/06/04 03:21:42;;;;;;;9.68;4.20;;;;;;;15.86;59.67;96736.59;5051601;28;20500;-73
2021/06/04 03:24:13;;;;;;;8.13;4.35;;;;;;;15.87;59.47;96732.72;5051563;28;20044;-72
2021/06/04 03:26:40;;;;;;;16.73;5.28;;;;;;;15.88;59.41;96729.63;5051514;28;20044;-72
2021/06/04 03:29:09;;;;;;;10.93;4.68;;;;;;;15.90;59.50;96727.31;5047863;28;20041;-73
2021/06/04 03:31:38;;;;;;;9.45;4.60;;;;;;;15.94;59.41;96726.66;5043779;28;20153;-73
2021/06/04 03:34:06;;;;;;;8.43;4.18;;;;;;;16.00;59.65;96719.78;5051186;28;20040;-72
2021/06/04 03:36:34;;;;;;;7.15;4.60;;;;;;;16.04;58.93;96726.19;5051742;28;20056;-72
2021/06/04 03:39:01;;;;;;;8.75;4.60;;;;;;;16.06;58.19;96718.41;5051659;28;20049;-72
2021/06/04 03:41:33;;;;;;;8.32;4.32;;;;;;;16.09;57.93;96725.97;5051188;28;20045;-72
2021/06/04 03:44:00;;;;;;;10.43;4.40;;;;;;;16.12;56.61;96733.50;5051630;28;20108;-72
2021/06/04 03:46:27;;;;;;;10.93;4.82;;;;;;;16.17;56.20;96733.25;5051101;28;20462;-72
2021/06/04 03:48:55;;;;;;;10.40;5.15;;;;;;;16.17;55.01;96738.75;5051435;28;20041;-72
2021/06/04 03:51:25;;;;;;;9.90;4.60;;;;;;;16.18;55.71;96743.94;5050507;28;20508;-73
2021/06/04 03:53:52;;;;;;;7.40;4.28;;;;;;;16.16;55.53;96740.72;5051159;28;20552;-72
2021/06/04 03:56:18;;;;;;;7.70;4.85;;;;;;;16.20;54.79;96734.53;5050782;28;20053;-72
2021/06/04 03:58:45;;;;;;;6.28;4.18;;;;;;;16.18;54.81;96748.59;5051278;28;20404;-71
2021/06/04 04:01:13;;;;;;;8.73;4.63;;;;;;;16.20;55.74;96743.56;5038578;28;20041;-71
2021/06/04 04:03:40;;;;;;;6.03;4.00;;;;;;;16.21;56.50;96741.63;5050940;28;20044;-70
2021/06/04 04:06:08;;;;;;;8.63;4.50;;;;;;;16.22;57.42;96738.53;5050511;28;20393;-70
2021/06/04 04:08:35;;;;;;;8.15;4.75;;;;;;;16.20;57.10;96735.34;5051105;28;20044;-72
2021/06/04 04:11:01;;;;;;;11.82;4.85;;;;;;;16.18;56.15;96738.44;5051029;28;20049;-71
2021/06/04 04:13:28;;;;;;;8.70;4.85;;;;;;;16.19;56.37;96739.22;5050851;28;20041;-71
2021/06/04 04:15:55;;;;;;;9.82;5.00;;;;;;;16.21;57.00;96742.44;5051037;28;20450;-71
2021/06/04 04:18:22;;;;;;;10.07;4.85;;;;;;;16.20;56.54;96735.34;5050506;28;21059;-71
2021/06/04 04:20:51;;;;;;;9.35;4.88;;;;;;;16.18;56.89;96743.09;5054464;28;20037;-71
2021/06/04 04:23:25;;;;;;;12.40;4.93;;;;;;;16.15;56.31;96761.09;5054428;28;20056;-71
2021/06/04 04:25:51;;;;;;;9.85;4.50;;;;;;;16.07;57.41;96772.97;5055185;28;20152;-71
2021/06/04 04:28:21;;;;;;;9.32;5.22;;;;;;;15.97;57.94;96778.13;5054679;28;20057;-71
2021/06/04 04:30:48;;;;;;;8.73;5.32;;;;;;;15.81;59.07;96776.06;5043971;28;20053;-71
2021/06/04 04:33:14;;;;;;;11.80;5.15;;;;;;;15.74;60.09;96773.06;5054468;28;20048;-70
2021/06/04 04:35:41;;;;;;;12.65;5.80;;;;;;;15.75;60.47;96774.69;5054923;28;20055;-71
2021/06/04 04:38:09;;;;;;;8.45;5.10;;;;;;;15.79;60.76;96764.63;5054306;28;20032;-71
2021/06/04 04:40:39;;;;;;;8.65;5.15;;;;;;;15.82;60.16;96769.44;5054934;28;20056;-72
2021/06/04 04:43:08;;;;;;;10.70;5.25;;;;;;;15.87;59.59;96777.47;5054346;28;20037;-71
2021/06/04 04:45:35;;;;;;;9.32;4.95;;;;;;;15.90;60.33;96774.00;5054749;28;20102;-71
2021/06/04 04:48:01;;;;;;;11.43;4.88;;;;;;;15.95;61.08;96773.00;5054512;28;20060;-70
2021/06/04 04:50:28;;;;;;;8.82;5.38;;;;;;;15.95;61.92;96766.69;5054562;28;20480;-71
2021/06/04 04:52:55;;;;;;;10.13;5.50;;;;;;;15.91;62.45;96772.84;5054450;28;20493;-70
2021/06/04 04:55:24;;;;;;;9.95;5.30;;;;;;;15.90;62.30;96775.97;5054003;28;20064;-71
2021/06/04 04:57:52;;;;;;;8.90;5.40;;;;;;;15.86;62.54;96775.84;5054448;28;20055;-71
2021/06/04 05:00:22;;;;;;;9.10;5.22;;;;;;;15.86;62.39;96770.34;5042804;28;20050;-71
2021/06/04 05:02:49;;;;;;;11.68;5.72;;;;;;;15.88;63.29;96768.06;5054297;28;20095;-71
2021/06/04 05:05:16;;;;;;;10.77;5.32;;;;;;;15.91;61.28;96763.81;5053891;28;20049;-71
2021/06/04 05:07:42;;;;;;;9.75;4.60;;;;;;;15.93;59.45;96763.50;5054491;28;20075;-70
2021/06/04 05:10:09;;;;;;;11.32;5.18;;;;;;;16.01;60.19;96770.81;5053710;28;20037;-71
2021/06/04 05:12:36;;;;;;;10.25;4.90;;;;;;;16.10;60.27;96763.28;5054243;28;20074;-70
2021/06/04 05:15:05;;;;;;;10.50;4.75;;;;;;;16.19;59.83;96766.72;5053859;28;20110;-71
2021/06/04 05:17:31;;;;;;;8.30;4.80;;;;;;;16.26;59.31;96766.13;5054225;28;20048;-71
2021/06/04 05:19:58;;;;;;;10.38;4.65;;;;;;;16.35;57.57;96770.34;5054143;28;20127;-71
2021/06/04 05:22:24;;;;;;;7.47;4.30;;;;;;;16.42;57.67;96759.56;5053816;28;20124;-70
2021/06/04 05:24:50;;;;;;;7.82;4.45;;;;;;;16.50;57.49;96768.84;5054083;28;20098;-71
2021/06/04 05:27:17;;;;;;;7.18;4.50;;;;;;;16.58;57.58;96765.16;5053457;28;20075;-70
2021/06/04 05:29:43;;;;;;;8.00;4.78;;;;;;;16.69;58.48;96777.28;5045338;28;20136;-71
2021/06/04 05:32:10;;;;;;;7.32;4.72;;;;;;;16.74;57.83;96776.28;5049418;28;20049;-71
2021/06/04 05:34:37;;;;;;;9.15;4.93;;;;;;;16.83;57.44;96773.38;5053852;28;20044;-71
2021/06/04 05:37:04;;;;;;;8.73;4.25;;;;;;;16.88;57.93;96781.41;5053391;28;20091;-71
2021/06/04 05:39:30;;;;;;;10.05;4.82;;;;;;;16.96;58.18;96780.44;5053817;28;20044;-70
2021/06/04 05:41:59;;;;;;;7.65;4.18;;;;;;;16.99;55.75;96787.22;5053397;28;20045;-71
2021/06/04 05:44:27;;;;;;;9.65;4.53;;;;;;;17.06;56.28;96787.41;5053271;28;20060;-71
2021/06/04 05:46:58;;;;;;;7.25;4.32;;;;;;;17.08;56.25;96785.91;5053559;28;20496;-72
2021/06/04 05:49:26;;;;;;;9.52;4.82;;;;;;;17.11;56.42;96790.72;5052779;28;20052;-71
2021/06/04 05:51:56;;;;;;;11.18;4.90;;;;;;;17.21;55.81;96787.47;5053226;28;20060;-71
2021/06/04 05:54:24;;;;;;;9.27;5.00;;;;;;;17.27;56.74;96788.00;5052884;28;20057;-71
2021/06/04 05:56:50;;;;;;;7.50;4.25;;;;;;;17.34;57.51;96788.22;5053401;28;20088;-70
2021/06/04 05:59:16;;;;;;;12.90;4.60;;;;;;;17.39;56.92;96785.22;5048563;28;20042;-71
2021/06/04 06:01:46;;;;;;;12.77;4.85;;;;;;;17.48;57.35;96782.28;5046577;28;20095;-71
2021/06/04 06:04:12;;;;;;;9.40;4.45;;;;;;;17.51;57.56;96780.81;5052773;28;20092;-71
2021/06/04 06:06:40;;;;;;;10.80;4.72;;;;;;;17.57;58.13;96780.19;5053319;28;20040;-71
2021/06/04 06:09:07;;;;;;;8.30;4.70;;;;;;;17.64;58.29;96779.56;5052613;28;20037;-70
2021/06/04 06:11:34;;;;;;;7.95;4.60;;;;;;;17.70;58.87;96783.69;5053226;28;20045;-70
2021/06/04 06:14:01;;;;;;;8.90;4.60;;;;;;;17.74;58.60;96788.13;5052918;28;20407;-71
2021/06/04 06:16:28;;;;;;;8.73;4.97;;;;;;;17.84;58.18;96795.06;5052489;28;20037;-71
2021/06/04 06:18:55;;;;;;;8.00;5.03;;;;;;;17.92;58.45;96796.88;5053026;28;20092;-71
2021/06/04 06:21:22;;;;;;;10.45;5.70;;;;;;;18.02;57.89;96795.53;5052187;28;20531;-71
2021/06/04 06:23:49;;;;;;;10.10;5.35;;;;;;;18.09;58.17;96800.44;5052817;28;20048;-71
2021/06/04 06:26:22;;;;;;;8.50;5.28;;;;;;;18.24;56.42;96799.63;5052181;28;20044;-71
2021/06/04 06:28:48;;;;;;;10.73;4.80;;;;;;;18.36;57.35;96799.50;5052514;28;20059;-71
2021/06/04 06:31:20;;;;;;;10.05;5.22;;;;;;;18.49;56.77;96812.06;5040967;28;20049;-71
2021/06/04 06:33:46;;;;;;;12.40;5.75;;;;;;;18.61;56.81;96805.63;5012687;28;20118;-71
2021/06/04 06:36:16;;;;;;;7.75;4.93;;;;;;;18.76;57.95;96807.56;5012599;28;20065;-71
2021/06/04 06:38:42;;;;;;;6.90;4.55;;;;;;;18.92;58.27;96815.81;5012648;28;20525;-70
2021/06/04 06:41:12;;;;;;;11.80;4.95;;;;;;;19.06;58.41;96820.03;5012229;28;20058;-71
2021/06/04 06:43:40;;;;;;;10.82;4.97;;;;;;;19.19;58.26;96807.69;5012588;28;20046;-71
2021/06/04 06:46:08;;;;;;;10.13;5.10;;;;;;;19.26;56.30;96807.81;5012121;28;20401;-71
2021/06/04 06:48:35;;;;;;;9.27;4.75;;;;;;;19.35;56.36;96810.38;5012524;28;20046;-71
2021/06/04 06:51:01;;;;;;;7.93;4.65;;;;;;;19.45;55.03;96813.34;5012703;28;20046;-71
2021/06/04 06:53:28;;;;;;;10.60;4.65;;;;;;;19.55;54.67;96804.47;5012445;28;20048;-71
2021/06/04 06:55:56;;;;;;;8.18;3.97;;;;;;;19.70;55.23;96804.78;5012733;28;20052;-71
2021/06/04 06:58:25;;;;;;;8.05;4.00;;;;;;;19.85;52.76;96806.66;5011828;28;20053;-72
2021/06/04 07:00:53;;;;;;;8.77;4.28;;;;;;;19.91;52.24;96802.41;5035235;28;20049;-71
2021/06/04 07:03:23;;;;;;;10.45;4.10;;;;;;;19.99;52.82;96806.09;5051463;28;20060;-72
2021/06/04 07:05:49;;;;;;;9.90;4.25;;;;;;;20.01;52.01;96810.09;5052049;28;20071;-71
2021/06/04 07:08:15;;;;;;;8.48;4.38;;;;;;;20.05;52.24;96802.66;5051438;28;20045;-71
2021/06/04 07:10:41;;;;;;;8.77;4.72;;;;;;;20.13;52.42;96816.59;5052022;28;20059;-71
2021/06/04 07:13:10;;;;;;;8.45;4.75;;;;;;;20.25;51.91;96808.09;5051240;28;20067;-71
2021/06/04 07:15:38;;;;;;;9.93;4.75;;;;;;;20.42;51.82;96813.16;5051656;28;20040;-71
2021/06/04 07:18:04;;;;;;;6.72;3.65;;;;;;;20.55;51.80;96811.78;5051348;28;20048;-71
2021/06/04 07:20:34;;;;;;;9.63;4.25;;;;;;;20.71;51.32;96819.94;5051666;28;20052;-71
2021/06/04 07:23:01;;;;;;;9.65;4.25;;;;;;;20.89;51.49;96820.22;5051659;28;20037;-71
2021/06/04 07:25:29;;;;;;;8.77;4.03;;;;;;;21.11;51.32;96813.78;5051402;28;20045;-70
2021/06/04 07:27:55;;;;;;;7.80;3.92;;;;;;;21.33;50.01;96817.66;5051665;28;20103;-71
2021/06/04 07:30:24;;;;;;;7.50;3.63;;;;;;;21.52;50.46;96824.22;5039605;28;21016;-72
2021/06/04 07:32:53;;;;;;;8.32;3.67;;;;;;;21.74;51.40;96814.16;5051373;28;20045;-71
2021/06/04 07:35:21;;;;;;;6.03;3.67;;;;;;;21.91;49.70;96808.00;5051006;28;20408;-71
2021/06/04 07:37:47;;;;;;;8.48;3.92;;;;;;;22.00;48.58;96816.81;5051041;28;20044;-71
2021/06/04 07:40:17;;;;;;;6.82;3.45;;;;;;;22.13;50.18;96812.63;5050858;28;20158;-71
2021/06/04 07:42:43;;;;;;;7.60;4.03;;;;;;;22.21;46.91;96815.44;5051214;28;20075;-71
2021/06/04 07:45:10;;;;;;;8.18;3.85;;;;;;;22.24;46.70;96814.66;5050886;28;20041;-71
2021/06/04 07:47:37;;;;;;;6.57;3.50;;;;;;;22.27;48.17;96813.91;5051052;28;20044;-71
2021/06/04 07:50:07;;;;;;;6.60;3.20;;;;;;;22.38;48.76;96814.78;5050648;28;20040;-71
2021/06/04 07:52:33;;;;;;;6.70;3.72;;;;;;;22.48;46.96;96814.09;5050963;28;20041;-71
2021/06/04 07:54:59;;;;;;;8.00;3.65;;;;;;;22.57;45.15;96806.22;5050586;28;20052;-72
2021/06/04 07:57:25;;;;;;;8.38;3.65;;;;;;;22.62;44.21;96803.09;5050242;28;20075;-71
2021/06/04 07:59:51;;;;;;;8.70;3.55;;;;;;;22.74;45.43;96804.75;5042022;28;20049;-72
2021/06/04 08:02:17;;;;;;;6.03;3.50;;;;;;;22.82;43.10;96806.41;5048332;28;20090;-72
2021/06/04 08:04:43;;;;;;;8.18;3.55;;;;;;;22.82;43.98;96806.41;5051098;28;20655;-72
2021/06/04 08:07:10;;;;;;;6.35;3.67;;;;;;;22.84;44.68;96811.56;5050485;28;20067;-72
2021/06/04 08:09:41;;;;;;;7.57;3.38;;;;;;;22.99;45.24;96810.50;5051000;28;20052;-72
2021/06/04 08:12:11;;;;;;;6.45;3.58;;;;;;;23.59;45.40;96798.06;5050650;28;20414;-72
2021/06/04 08:14:37;;;;;;;7.57;3.85;;;;;;;23.81;42.62;96805.31;5050726;28;20488;-72
2021/06/04 08:17:06;;;;;;;5.45;3.60;;;;;;;24.12;43.93;96808.56;5050372;28;20049;-72
2021/06/04 08:19:34;;;;;;;8.55;3.67;;;;;;;24.49;41.98;96811.00;5050698;28;20044;-72
2021/06/04 08:22:02;;;;;;;6.88;4.07;;;;;;;25.38;43.67;96810.03;5050057;28;20041;-72
2021/06/04 08:24:32;;;;;;;7.65;3.47;;;;;;;26.69;43.90;96802.88;5050281;28;20041;-73
2021/06/04 08:27:01;;;;;;;6.85;3.60;;;;;;;27.99;40.21;96803.81;5050579;28;20099;-72
2021/06/04 08:29:30;;;;;;;12.52;4.18;;;;;;;29.15;38.65;96804.31;5045386;28;20046;-72
2021/06/04 08:31:57;;;;;;;8.57;3.92;;;;;;;29.77;32.40;96805.50;5045873;28;20103;-72
2021/06/04 08:34:23;;;;;;;7.88;3.67;;;;;;;29.62;32.55;96798.63;5049863;28;20384;-72
2021/06/04 08:36:49;;;;;;;9.55;4.07;;;;;;;29.14;34.63;96801.97;5050455;28;20487;-72
2021/06/04 08:39:19;;;;;;;11.45;4.10;;;;;;;28.78;35.63;96808.97;5050195;28;20049;-72
2021/06/04 08:41:53;;;;;;;9.80;3.72;;;;;;;28.42;37.42;96802.38;5050406;28;20041;-72
2021/06/04 08:44:50;;;;;;;10.00;4.05;;;;;;;28.13;35.44;96794.38;5049764;28;20048;-72
2021/06/04 08:47:18;;;;;;;8.75;4.30;;;;;;;27.94;35.87;96797.88;5037350;28;20049;-72
2021/06/04 08:50:07;;;;;;;10.82;4.00;;;;;;;27.43;35.37;96803.31;5050243;28;20138;-71
2021/06/04 08:52:40;;;;;;;12.65;5.03;;;;;;;26.69;35.99;96799.28;5050010;28;20044;-71
2021/06/04 08:55:24;;;;;;;9.07;4.10;;;;;;;26.30;37.96;96808.75;5049926;28;20049;-72
2021/06/04 08:57:53;;;;;;;11.25;4.20;;;;;;;25.97;38.68;96801.81;5050353;28;20055;-71
2021/06/04 09:00:22;;;;;;;12.30;4.55;;;;;;;25.79;40.78;96798.31;5038591;28;20053;-72
2021/06/04 09:02:51;;;;;;;7.68;4.32;;;;;;;25.74;40.04;96799.53;5050148;28;20052;-71
2021/06/04 09:05:22;;;;;;;9.45;4.20;;;;;;;25.67;38.79;96800.34;5050548;28;20110;-72
2021/06/04 09:07:51;;;;;;;11.75;4.00;;;;;;;25.75;39.59;96790.78;5054197;28;20048;-71
2021/06/04 09:10:26;;;;;;;9.77;4.50;;;;;;;25.99;42.73;96797.38;5053196;28;20053;-71
2021/06/04 09:12:57;;;;;;;9.65;3.75;;;;;;;26.23;41.23;96786.47;5053851;28;20052;-70
2021/06/04 09:15:30;;;;;;;10.43;4.10;;;;;;;26.60;42.62;96794.16;5053411;28;20048;-73
2021/06/04 09:18:04;;;;;;;9.82;3.78;;;;;;;26.74;41.85;96794.03;5053972;28;20048;-72
2021/06/04 09:20:38;;;;;;;13.57;4.47;;;;;;;26.89;41.38;96799.50;5053460;28;20407;-72
2021/06/04 09:23:08;;;;;;;8.90;4.28;;;;;;;26.92;41.17;96795.84;5053190;28;20124;-73
2021/06/04 09:25:36;;;;;;;13.45;4.57;;;;;;;26.83;40.12;96796.34;5053742;28;20045;-72
2021/06/04 09:28:25;;;;;;;6.15;3.83;;;;;;;26.89;40.73;96788.31;5053050;28;20215;-72
2021/06/04 09:30:54;;;;;;;7.68;3.90;;;;;;;26.86;37.41;96797.53;5042138;28;20051;-71
2021/06/04 09:33:23;;;;;;;23.90;5.93;;;;;;;26.97;42.12;96798.19;5052898;28;20041;-71
2021/06/04 09:36:05;;;;;;;14.27;5.28;;;;;;;27.17;41.57;96790.84;5053463;28;20045;-72
2021/06/04 09:38:35;;;;;;;9.73;4.13;;;;;;;27.26;41.22;96799.53;5052902;28;20052;-72
2021/06/04 09:41:19;;;;;;;8.10;4.20;;;;;;;27.41;39.13;96793.75;5053290;28;20078;-72
2021/06/04 09:43:51;;;;;;;8.20;4.40;;;;;;;27.58;40.10;96801.13;5053061;28;20037;-71
2021/06/04 09:46:29;;;;;;;9.00;4.15;;;;;;;27.71;35.68;96804.97;5052814;28;20041;-72
2021/06/04 09:48:58;;;;;;;14.05;4.22;;;;;;;27.84;39.51;96791.22;5053307;28;20454;-70
2021/06/04 09:51:27;;;;;;;12.65;4.55;;;;;;;27.97;37.90;96788.63;5052287;28;20099;-71
2021/06/04 09:53:55;;;;;;;9.85;4.13;;;;;;;28.02;37.54;96790.97;5053131;28;20041;-71
2021/06/04 09:56:30;;;;;;;12.30;4.00;;;;;;;28.03;35.68;96792.53;5052486;28;20415;-71
2021/06/04 09:58:59;;;;;;;11.55;4.68;;;;;;;27.63;35.39;96794.28;5051655;28;20048;-70
2021/06/04 10:01:27;;;;;;;7.93;3.53;;;;;;;27.54;37.58;96794.78;5043136;28;20099;-71
2021/06/04 10:03:57;;;;;;;11.98;4.63;;;;;;;27.52;36.52;96794.41;5052826;28;20037;-71
2021/06/04 10:06:46;;;;;;;10.02;4.28;;;;;;;27.29;36.77;96801.47;5052267;28;20602;-71
2021/06/04 10:09:22;;;;;;;9.38;4.32;;;;;;;27.24;39.20;96787.94;5052321;28;20725;-71
2021/06/04 10:11:55;;;;;;;10.88;4.00;;;;;;;27.37;40.50;96790.22;5052872;28;20049;-71
2021/06/04 10:14:30;;;;;;;9.40;4.00;;;;;;;27.49;39.17;96786.84;5052236;28;20461;-71
2021/06/04 10:17:14;;;;;;;8.52;3.97;;;;;;;27.50;38.92;96782.84;5052245;28;20052;-72
2021/06/04 10:19:42;;;;;;;11.73;4.07;;;;;;;27.51;38.33;96784.41;5052548;28;20064;-71
2021/06/04 10:22:16;;;;;;;7.22;4.03;;;;;;;27.58;39.38;96778.75;5040783;28;20419;-72
2021/06/04 10:24:44;;;;;;;14.95;4.68;;;;;;;27.64;39.99;96765.88;5052347;28;20045;-71
2021/06/04 10:27:13;;;;;;;8.88;4.30;;;;;;;27.81;39.56;96776.06;5051839;28;20045;-71
2021/06/04 10:29:41;;;;;;;7.43;3.78;;;;;;;27.99;37.12;96764.63;5044851;28;20045;-71
2021/06/04 10:32:12;;;;;;;9.25;3.80;;;;;;;28.07;37.09;96766.06;5048418;28;20045;-71
2021/06/04 10:34:49;;;;;;;9.07;4.20;;;;;;;28.11;38.82;96771.63;5051878;28;20410;-71
2021/06/04 10:37:20;;;;;;;7.60;3.80;;;;;;;28.14;36.20;96768.00;5051925;28;20102;-72
2021/06/04 10:39:49;;;;;;;11.52;4.28;;;;;;;28.02;36.43;96768.56;5052010;28;20056;-71
2021/06/04 10:42:25;;;;;;;9.23;4.20;;;;;;;27.91;38.52;96765.13;5051420;28;20048;-71
2021/06/04 10:45:02;;;;;;;10.23;4.15;;;;;;;27.89;37.29;96756.38;5051845;28;20056;-71
2021/06/04 10:47:37;;;;;;;11.90;3.67;;;;;;;27.88;33.62;96757.56;5052091;28;20041;-71
2021/06/04 10:50:13;;;;;;;11.57;3.90;;;;;;;27.67;36.93;96751.06;5051556;28;20052;-72
2021/06/04 10:52:55;;;;;;;7.25;3.45;;;;;;;27.49;33.56;96754.09;5051858;28;20059;-71
2021/06/04 10:55:26;;;;;;;14.02;4.18;;;;;;;27.47;40.08;96750.13;5051578;28;20176;-71
2021/06/04 10:57:59;;;;;;;11.95;4.30;;;;;;;27.62;40.62;96751.53;5051961;28;20056;-72
2021/06/04 11:00:31;;;;;;;13.50;4.20;;;;;;;27.75;41.19;96743.38;5039986;28;20061;-71
2021/06/04 11:03:06;;;;;;;6.85;3.30;;;;;;;27.86;32.63;96746.81;5051755;28;20103;-71
2021/06/04 11:05:45;;;;;;;8.18;3.85;;;;;;;27.70;34.80;96741.84;5051478;28;20052;-72
2021/06/04 11:08:19;;;;;;;7.85;3.00;;;;;;;27.72;31.88;96739.44;5051563;28;20041;-72
2021/06/04 11:10:52;;;;;;;8.55;3.15;;;;;;;27.82;27.99;96732.88;5051793;28;20033;-71
2021/06/04 11:13:36;;;;;;;9.90;3.30;;;;;;;28.00;28.78;96732.59;5051081;28;20453;-71
2021/06/04 11:16:12;;;;;;;5.43;2.40;;;;;;;28.13;27.63;96735.59;5051013;28;20045;-71
2021/06/04 11:18:42;;;;;;;11.32;2.70;;;;;;;28.18;25.90;96740.72;5051628;28;20037;-71
2021/06/04 11:21:21;;;;;;;5.88;2.53;;;;;;;28.17;24.95;96724.34;5051111;28;20098;-71
2021/06/04 11:23:51;;;;;;;10.55;2.60;;;;;;;27.96;26.21;96731.84;5051430;28;20120;-71
2021/06/04 11:26:22;;;;;;;6.68;2.60;;;;;;;27.86;28.69;96724.41;5050898;28;20053;-71
2021/06/04 11:28:53;;;;;;;8.43;3.00;;;;;;;27.93;28.02;96724.31;5049999;28;20071;-71
2021/06/04 11:31:34;;;;;;;7.65;2.83;;;;;;;28.09;28.07;96723.69;5039997;28;20056;-71
2021/06/04 11:34:07;;;;;;;7.43;2.70;;;;;;;28.17;29.07;96718.75;5011571;28;20034;-71
2021/06/04 11:36:41;;;;;;;9.90;2.63;;;;;;;28.14;26.02;96717.59;5011275;28;20045;-71
2021/06/04 11:39:12;;;;;;;7.00;2.50;;;;;;;28.05;26.97;96718.13;5011399;28;20054;-71
2021/06/04 11:41:42;;;;;;;7.55;3.05;;;;;;;28.08;26.14;96710.88;5011456;28;20045;-72
2021/06/04 11:44:28;;;;;;;5.00;2.47;;;;;;;28.05;28.47;96706.13;5011063;28;20100;-72